Tadoussac, Canada
Current Conditions -  °F | °C
As of 10:00 AM on Saturday 25 Oct 2014 (Local Time) from CYBG Reporting Station
Broken Clouds Broken Clouds  
Wind Chill: 33°   Ceiling: 20000
Heat Index: 37°   Visibility: 25mi
Dew Point: 32°   Wind: 6mph
Humidity: 81%   Direction: 80°E
Pressure: 29.65"   Gusts: NA
Location:  48.15°N, 69.72°W
Report Text: CYBG 251400Z 08005KT 25SM FEW170 BKN200 03/00 A2965 RMK AC2CI1 SLP047
Loading
Personal Weather Stations






























Interactive Weather Map
Tropical Storm Tracking
New forecast layout! Learn more

10-Day Weather Forecast

Advertisements
Track Severe Weather on mobile